Airfield :
LOGIN :

Register | Disclaimer

   EN    FR    IT 

 










Legend :    VFR   Marginal VFR   IFR   Intensive IFR   Very Intensive IFR
Visi :
Ceiling :
>= 8 km
>= 3000ft
5 to 8 km
1000 to 3000 ft
1500m to 5 km
500 to 1000 ft
800 to 1500m
200 to 500 ft
< 800m
< 200 ft
Symbols :   Thunderstorms  Fog  Heavy snow  Heavy precipitations  Wind > 20 kt
SIGMETs :     Misc.  Thunderstorms  Icing  Turbulence  Mountain Waves  Volcanic Ashes






- Airport Elevation : 83 ft
- IATA code : LHR


EGLL - London Heathrow

CURRENT METAR :
  • 042350Z AUTO 20004KT 9999 FEW044 16/13 Q1011 NOSIG

EXPIRED METARs :
  • 042320Z AUTO 19005KT 9999 FEW049 16/13 Q1011 NOSIG
  • 042250Z AUTO 20006KT 9999 NCD 16/13 Q1012
  • 042220Z AUTO 21006KT 9999 SCT041 BKN048 17/13 Q1012 NOSIG
  • 042150Z AUTO 21006KT 9999 BKN041 17/13 Q1012
  • 042120Z AUTO 19006KT 9999 NCD 17/13 Q1012

TAF TAF EGLL
Valid from the 05 at 00:00 until the 06 at 06:00 UTC


042254Z 0500/0606 20004KT 9999 SCT040
BECMG 0509/0512 18014KT
TEMPO 0514/0522 7000 RA SHRA BKN012
PROB30
TEMPO 0515/0521 4000 +SHRA
TEMPO 0522/0606 8000 -SHRA BKN010



MET'MAP, your aeronautical weather chart ! - Copyright ORBIFLY December 2007 - Disclaimer

ORBIFLY MET'MAP TEAM :

Programming & Development : Alexandra Zaïnal
Concept & original design : Baudouin d'Aumeries
Assistance for programming : Marc-Olivier Méhu
Technical & hardware support : Manuel Goepfert

Contact : metmap@orbifly.com




SOURCES & CREDITS :

   NOAA